sensor_id;sensor_type;location;lat;lon;timestamp;pressure;altitude;pressure_sealevel;temperature;humidity
11621;BME280;5866;49.094;11.900;2022-12-20T00:01:49;96963.50;;;0.36;100.00
11621;BME280;5866;49.094;11.900;2022-12-20T00:04:17;96963.22;;;0.25;100.00
11621;BME280;5866;49.094;11.900;2022-12-20T00:06:44;96963.94;;;0.44;100.00
11621;BME280;5866;49.094;11.900;2022-12-20T00:09:13;96972.66;;;0.60;100.00
11621;BME280;5866;49.094;11.900;2022-12-20T00:11:40;96966.06;;;0.85;100.00
11621;BME280;5866;49.094;11.900;2022-12-20T00:14:08;96972.47;;;0.63;100.00
11621;BME280;5866;49.094;11.900;2022-12-20T00:16:36;96974.72;;;0.38;100.00
11621;BME280;5866;49.094;11.900;2022-12-20T00:19:05;96991.44;;;0.67;100.00
11621;BME280;5866;49.094;11.900;2022-12-20T00:21:33;96989.38;;;0.72;100.00
11621;BME280;5866;49.094;11.900;2022-12-20T00:24:01;96984.47;;;0.50;100.00
11621;BME280;5866;49.094;11.900;2022-12-20T00:26:33;96985.34;;;0.66;100.00
11621;BME280;5866;49.094;11.900;2022-12-20T00:29:01;96982.66;;;0.84;100.00
11621;BME280;5866;49.094;11.900;2022-12-20T00:31:29;96978.56;;;0.79;100.00
11621;BME280;5866;49.094;11.900;2022-12-20T00:33:59;96964.31;;;0.85;100.00
11621;BME280;5866;49.094;11.900;2022-12-20T00:36:28;96956.06;;;0.77;100.00
11621;BME280;5866;49.094;11.900;2022-12-20T00:38:56;96962.28;;;0.74;100.00
11621;BME280;5866;49.094;11.900;2022-12-20T00:41:26;96953.00;;;0.85;100.00
11621;BME280;5866;49.094;11.900;2022-12-20T00:43:55;96961.91;;;1.12;100.00
11621;BME280;5866;49.094;11.900;2022-12-20T00:46:24;96957.03;;;1.06;100.00
11621;BME280;5866;49.094;11.900;2022-12-20T00:48:52;96951.97;;;1.03;100.00
11621;BME280;5866;49.094;11.900;2022-12-20T00:51:22;96947.34;;;1.08;100.00
11621;BME280;5866;49.094;11.900;2022-12-20T00:53:50;96955.56;;;1.16;100.00
11621;BME280;5866;49.094;11.900;2022-12-20T00:56:18;96957.28;;;1.01;100.00
11621;BME280;5866;49.094;11.900;2022-12-20T00:58:45;96965.31;;;1.28;100.00
11621;BME280;5866;49.094;11.900;2022-12-20T01:01:18;96969.38;;;1.18;100.00
11621;BME280;5866;49.094;11.900;2022-12-20T01:03:46;96960.75;;;1.02;100.00
11621;BME280;5866;49.094;11.900;2022-12-20T01:06:14;96957.13;;;0.57;100.00
11621;BME280;5866;49.094;11.900;2022-12-20T01:08:42;96956.88;;;0.31;100.00
11621;BME280;5866;49.094;11.900;2022-12-20T01:11:12;96956.50;;;0.21;100.00
11621;BME280;5866;49.094;11.900;2022-12-20T01:13:42;96966.75;;;0.09;100.00
11621;BME280;5866;49.094;11.900;2022-12-20T01:16:12;96977.69;;;0.63;100.00
11621;BME280;5866;49.094;11.900;2022-12-20T01:18:42;96963.91;;;1.22;100.00
11621;BME280;5866;49.094;11.900;2022-12-20T01:21:11;96958.44;;;1.27;100.00
11621;BME280;5866;49.094;11.900;2022-12-20T01:23:39;96955.47;;;0.88;100.00
11621;BME280;5866;49.094;11.900;2022-12-20T01:26:10;96955.06;;;0.79;100.00
11621;BME280;5866;49.094;11.900;2022-12-20T01:28:40;96958.72;;;0.91;100.00
11621;BME280;5866;49.094;11.900;2022-12-20T01:31:10;96963.56;;;1.28;100.00
11621;BME280;5866;49.094;11.900;2022-12-20T01:33:38;96970.28;;;1.62;100.00
11621;BME280;5866;49.094;11.900;2022-12-20T01:36:10;96974.91;;;1.87;100.00
11621;BME280;5866;49.094;11.900;2022-12-20T01:38:38;96967.69;;;1.62;100.00
11621;BME280;5866;49.094;11.900;2022-12-20T01:41:05;96959.03;;;1.01;100.00
11621;BME280;5866;49.094;11.900;2022-12-20T01:43:48;96955.72;;;0.52;100.00
11621;BME280;5866;49.094;11.900;2022-12-20T01:46:17;96949.88;;;0.47;100.00
11621;BME280;5866;49.094;11.900;2022-12-20T01:48:50;96948.03;;;0.33;100.00
11621;BME280;5866;49.094;11.900;2022-12-20T01:51:20;96953.50;;;0.44;100.00
11621;BME280;5866;49.094;11.900;2022-12-20T01:53:52;96948.28;;;0.44;100.00
11621;BME280;5866;49.094;11.900;2022-12-20T01:56:22;96936.81;;;0.16;100.00
11621;BME280;5866;49.094;11.900;2022-12-20T01:58:51;96941.56;;;0.25;100.00
11621;BME280;5866;49.094;11.900;2022-12-20T02:01:20;96928.63;;;0.54;100.00
11621;BME280;5866;49.094;11.900;2022-12-20T02:03:48;96919.50;;;0.15;100.00
11621;BME280;5866;49.094;11.900;2022-12-20T02:06:21;96921.84;;;0.35;100.00
11621;BME280;5866;49.094;11.900;2022-12-20T02:08:52;96920.59;;;0.26;100.00
11621;BME280;5866;49.094;11.900;2022-12-20T02:11:30;96916.78;;;0.32;100.00
11621;BME280;5866;49.094;11.900;2022-12-20T02:14:10;96911.84;;;0.43;100.00
11621;BME280;5866;49.094;11.900;2022-12-20T02:16:52;96933.16;;;0.35;100.00
11621;BME280;5866;49.094;11.900;2022-12-20T02:19:41;96927.41;;;0.60;100.00
11621;BME280;5866;49.094;11.900;2022-12-20T02:22:25;96924.56;;;0.49;100.00
11621;BME280;5866;49.094;11.900;2022-12-20T02:25:13;96939.53;;;0.45;100.00
11621;BME280;5866;49.094;11.900;2022-12-20T02:27:53;96928.88;;;0.50;100.00
11621;BME280;5866;49.094;11.900;2022-12-20T02:30:27;96922.88;;;0.32;100.00
11621;BME280;5866;49.094;11.900;2022-12-20T02:32:58;96919.34;;;0.33;100.00
11621;BME280;5866;49.094;11.900;2022-12-20T02:35:29;96908.91;;;0.33;100.00
11621;BME280;5866;49.094;11.900;2022-12-20T02:37:58;96905.28;;;0.20;100.00
11621;BME280;5866;49.094;11.900;2022-12-20T02:40:28;96911.72;;;0.13;100.00
11621;BME280;5866;49.094;11.900;2022-12-20T02:43:01;96925.16;;;-0.10;100.00
11621;BME280;5866;49.094;11.900;2022-12-20T02:45:33;96911.91;;;-0.23;100.00
11621;BME280;5866;49.094;11.900;2022-12-20T02:48:04;96911.16;;;-0.25;100.00
11621;BME280;5866;49.094;11.900;2022-12-20T02:50:36;96912.66;;;-0.21;100.00
11621;BME280;5866;49.094;11.900;2022-12-20T02:53:06;96907.75;;;-0.10;100.00
11621;BME280;5866;49.094;11.900;2022-12-20T02:55:41;96910.16;;;-0.22;100.00
11621;BME280;5866;49.094;11.900;2022-12-20T02:58:16;96907.25;;;-0.33;100.00
11621;BME280;5866;49.094;11.900;2022-12-20T03:00:49;96909.50;;;-0.43;100.00
11621;BME280;5866;49.094;11.900;2022-12-20T03:03:17;96902.06;;;-0.01;100.00
11621;BME280;5866;49.094;11.900;2022-12-20T03:05:53;96898.44;;;0.02;100.00
11621;BME280;5866;49.094;11.900;2022-12-20T03:08:22;96892.34;;;-0.14;100.00
11621;BME280;5866;49.094;11.900;2022-12-20T03:10:51;96881.44;;;-0.05;100.00
11621;BME280;5866;49.094;11.900;2022-12-20T03:13:20;96875.97;;;-0.01;100.00
11621;BME280;5866;49.094;11.900;2022-12-20T03:15:49;96871.34;;;0.05;100.00
11621;BME280;5866;49.094;11.900;2022-12-20T03:18:17;96875.84;;;-0.30;100.00
11621;BME280;5866;49.094;11.900;2022-12-20T03:20:45;96874.47;;;-0.37;100.00
11621;BME280;5866;49.094;11.900;2022-12-20T03:23:12;96879.44;;;0.00;100.00
11621;BME280;5866;49.094;11.900;2022-12-20T03:25:40;96888.91;;;0.01;100.00
11621;BME280;5866;49.094;11.900;2022-12-20T03:28:07;96887.00;;;0.36;100.00
11621;BME280;5866;49.094;11.900;2022-12-20T03:30:35;96875.56;;;0.54;100.00
11621;BME280;5866;49.094;11.900;2022-12-20T03:33:04;96867.97;;;0.49;100.00
11621;BME280;5866;49.094;11.900;2022-12-20T03:35:32;96884.66;;;0.31;100.00
11621;BME280;5866;49.094;11.900;2022-12-20T03:37:59;96878.84;;;0.57;100.00
11621;BME280;5866;49.094;11.900;2022-12-20T03:40:27;96875.38;;;0.26;100.00
11621;BME280;5866;49.094;11.900;2022-12-20T03:42:54;96876.09;;;0.29;100.00
11621;BME280;5866;49.094;11.900;2022-12-20T03:45:22;96886.72;;;0.71;100.00
11621;BME280;5866;49.094;11.900;2022-12-20T03:47:49;96879.09;;;0.68;100.00
11621;BME280;5866;49.094;11.900;2022-12-20T03:50:18;96883.50;;;0.52;100.00
11621;BME280;5866;49.094;11.900;2022-12-20T03:52:46;96876.72;;;0.17;100.00
11621;BME280;5866;49.094;11.900;2022-12-20T03:55:14;96881.13;;;0.32;100.00
11621;BME280;5866;49.094;11.900;2022-12-20T03:57:41;96876.25;;;0.26;100.00
11621;BME280;5866;49.094;11.900;2022-12-20T04:00:09;96884.78;;;0.13;100.00
11621;BME280;5866;49.094;11.900;2022-12-20T04:02:38;96874.22;;;0.00;100.00
11621;BME280;5866;49.094;11.900;2022-12-20T04:05:06;96869.59;;;0.36;100.00
11621;BME280;5866;49.094;11.900;2022-12-20T04:07:35;96879.25;;;0.65;100.00
11621;BME280;5866;49.094;11.900;2022-12-20T04:10:04;96879.25;;;0.65;100.00
11621;BME280;5866;49.094;11.900;2022-12-20T04:12:32;96872.25;;;0.50;100.00
11621;BME280;5866;49.094;11.900;2022-12-20T04:14:59;96867.94;;;0.80;100.00
11621;BME280;5866;49.094;11.900;2022-12-20T04:17:27;96870.16;;;0.72;100.00
11621;BME280;5866;49.094;11.900;2022-12-20T04:19:55;96856.19;;;0.42;100.00
11621;BME280;5866;49.094;11.900;2022-12-20T04:22:22;96857.22;;;-0.07;100.00
11621;BME280;5866;49.094;11.900;2022-12-20T04:24:51;96850.47;;;-0.11;100.00
11621;BME280;5866;49.094;11.900;2022-12-20T04:27:18;96852.38;;;-0.15;100.00
11621;BME280;5866;49.094;11.900;2022-12-20T04:29:46;96846.41;;;-0.32;100.00
11621;BME280;5866;49.094;11.900;2022-12-20T04:32:14;96848.06;;;-0.31;100.00
11621;BME280;5866;49.094;11.900;2022-12-20T04:34:41;96838.34;;;-0.28;100.00
11621;BME280;5866;49.094;11.900;2022-12-20T04:37:09;96841.06;;;0.18;100.00
11621;BME280;5866;49.094;11.900;2022-12-20T04:39:36;96840.13;;;0.34;100.00
11621;BME280;5866;49.094;11.900;2022-12-20T04:42:05;96857.06;;;0.27;100.00
11621;BME280;5866;49.094;11.900;2022-12-20T04:44:33;96864.28;;;0.38;100.00
11621;BME280;5866;49.094;11.900;2022-12-20T04:47:00;96871.00;;;0.11;100.00
11621;BME280;5866;49.094;11.900;2022-12-20T04:49:28;96860.16;;;0.18;100.00
11621;BME280;5866;49.094;11.900;2022-12-20T04:51:56;96858.66;;;0.14;100.00
11621;BME280;5866;49.094;11.900;2022-12-20T04:54:44;96860.38;;;-0.02;100.00
11621;BME280;5866;49.094;11.900;2022-12-20T04:57:13;96856.53;;;0.05;100.00
11621;BME280;5866;49.094;11.900;2022-12-20T04:59:40;96850.84;;;0.14;100.00
11621;BME280;5866;49.094;11.900;2022-12-20T05:02:08;96846.19;;;0.04;100.00
11621;BME280;5866;49.094;11.900;2022-12-20T05:04:36;96842.81;;;0.17;100.00
11621;BME280;5866;49.094;11.900;2022-12-20T05:07:03;96837.53;;;0.19;100.00
11621;BME280;5866;49.094;11.900;2022-12-20T05:09:31;96826.34;;;0.01;100.00
11621;BME280;5866;49.094;11.900;2022-12-20T05:11:58;96817.31;;;0.07;100.00
11621;BME280;5866;49.094;11.900;2022-12-20T05:14:27;96819.59;;;0.28;100.00
11621;BME280;5866;49.094;11.900;2022-12-20T05:16:55;96828.38;;;0.27;100.00
11621;BME280;5866;49.094;11.900;2022-12-20T05:19:22;96837.81;;;0.75;100.00
11621;BME280;5866;49.094;11.900;2022-12-20T05:21:50;96831.03;;;0.87;100.00
11621;BME280;5866;49.094;11.900;2022-12-20T05:24:35;96842.34;;;0.71;100.00
11621;BME280;5866;49.094;11.900;2022-12-20T05:27:21;96847.50;;;0.57;100.00
11621;BME280;5866;49.094;11.900;2022-12-20T05:29:49;96857.28;;;0.99;100.00
11621;BME280;5866;49.094;11.900;2022-12-20T05:32:17;96849.72;;;0.65;100.00
11621;BME280;5866;49.094;11.900;2022-12-20T05:34:44;96841.53;;;0.55;100.00
11621;BME280;5866;49.094;11.900;2022-12-20T05:37:12;96841.03;;;0.64;100.00
11621;BME280;5866;49.094;11.900;2022-12-20T05:39:40;96840.72;;;0.39;100.00
11621;BME280;5866;49.094;11.900;2022-12-20T05:42:08;96811.00;;;0.11;100.00
11621;BME280;5866;49.094;11.900;2022-12-20T05:44:36;96797.34;;;-0.09;100.00
11621;BME280;5866;49.094;11.900;2022-12-20T05:47:05;96816.81;;;-0.16;100.00
11621;BME280;5866;49.094;11.900;2022-12-20T05:49:33;96819.53;;;-0.02;100.00
11621;BME280;5866;49.094;11.900;2022-12-20T05:52:02;96814.25;;;0.00;100.00
11621;BME280;5866;49.094;11.900;2022-12-20T05:54:30;96828.28;;;0.29;100.00
11621;BME280;5866;49.094;11.900;2022-12-20T05:56:58;96827.38;;;0.59;100.00
11621;BME280;5866;49.094;11.900;2022-12-20T05:59:25;96839.94;;;0.98;100.00
11621;BME280;5866;49.094;11.900;2022-12-20T06:01:53;96825.00;;;1.30;100.00
11621;BME280;5866;49.094;11.900;2022-12-20T06:04:22;96813.78;;;1.42;100.00
11621;BME280;5866;49.094;11.900;2022-12-20T06:06:50;96812.56;;;1.33;100.00
11621;BME280;5866;49.094;11.900;2022-12-20T06:09:18;96813.78;;;1.42;100.00
11621;BME280;5866;49.094;11.900;2022-12-20T06:11:45;96821.03;;;1.09;100.00
11621;BME280;5866;49.094;11.900;2022-12-20T06:14:13;96827.06;;;0.95;100.00
11621;BME280;5866;49.094;11.900;2022-12-20T06:16:41;96832.03;;;0.84;100.00
11621;BME280;5866;49.094;11.900;2022-12-20T06:19:08;96830.56;;;1.24;100.00
11621;BME280;5866;49.094;11.900;2022-12-20T06:21:46;96815.28;;;1.46;100.00
11621;BME280;5866;49.094;11.900;2022-12-20T06:24:13;96816.41;;;1.42;100.00
11621;BME280;5866;49.094;11.900;2022-12-20T06:26:41;96823.88;;;1.34;100.00
11621;BME280;5866;49.094;11.900;2022-12-20T06:29:08;96836.72;;;1.09;100.00
11621;BME280;5866;49.094;11.900;2022-12-20T06:31:39;96833.09;;;0.82;100.00
11621;BME280;5866;49.094;11.900;2022-12-20T06:34:07;96821.31;;;0.59;100.00
11621;BME280;5866;49.094;11.900;2022-12-20T06:36:34;96820.66;;;0.55;100.00
11621;BME280;5866;49.094;11.900;2022-12-20T06:39:03;96808.56;;;0.54;100.00
11621;BME280;5866;49.094;11.900;2022-12-20T06:41:35;96813.06;;;0.66;100.00
11621;BME280;5866;49.094;11.900;2022-12-20T06:44:02;96815.56;;;0.84;100.00
11621;BME280;5866;49.094;11.900;2022-12-20T06:46:30;96811.34;;;1.11;100.00
11621;BME280;5866;49.094;11.900;2022-12-20T06:48:58;96806.81;;;0.99;100.00
11621;BME280;5866;49.094;11.900;2022-12-20T06:51:25;96804.00;;;0.88;100.00
11621;BME280;5866;49.094;11.900;2022-12-20T06:53:53;96801.25;;;0.75;100.00
11621;BME280;5866;49.094;11.900;2022-12-20T06:56:22;96805.59;;;1.34;100.00
11621;BME280;5866;49.094;11.900;2022-12-20T06:58:49;96794.19;;;1.21;100.00
11621;BME280;5866;49.094;11.900;2022-12-20T07:01:17;96786.09;;;0.82;100.00
11621;BME280;5866;49.094;11.900;2022-12-20T07:03:45;96778.38;;;0.94;100.00
11621;BME280;5866;49.094;11.900;2022-12-20T07:06:13;96786.50;;;1.18;100.00
11621;BME280;5866;49.094;11.900;2022-12-20T07:08:40;96790.59;;;0.94;100.00
11621;BME280;5866;49.094;11.900;2022-12-20T07:11:08;96794.69;;;0.68;100.00
11621;BME280;5866;49.094;11.900;2022-12-20T07:13:37;96780.53;;;0.72;100.00
11621;BME280;5866;49.094;11.900;2022-12-20T07:16:05;96785.22;;;0.51;100.00
11621;BME280;5866;49.094;11.900;2022-12-20T07:18:33;96784.75;;;0.74;100.00
11621;BME280;5866;49.094;11.900;2022-12-20T07:21:05;96798.19;;;0.82;100.00
11621;BME280;5866;49.094;11.900;2022-12-20T07:23:33;96795.03;;;1.21;100.00
11621;BME280;5866;49.094;11.900;2022-12-20T07:26:01;96806.91;;;0.67;100.00
11621;BME280;5866;49.094;11.900;2022-12-20T07:28:30;96784.47;;;0.49;100.00
11621;BME280;5866;49.094;11.900;2022-12-20T07:31:00;96803.78;;;0.76;100.00
11621;BME280;5866;49.094;11.900;2022-12-20T07:33:29;96812.72;;;0.72;100.00
11621;BME280;5866;49.094;11.900;2022-12-20T07:36:01;96833.28;;;0.93;100.00
11621;BME280;5866;49.094;11.900;2022-12-20T07:38:29;96832.00;;;1.43;100.00
11621;BME280;5866;49.094;11.900;2022-12-20T07:40:57;96828.53;;;1.29;100.00
11621;BME280;5866;49.094;11.900;2022-12-20T07:43:24;96815.22;;;1.04;100.00
11621;BME280;5866;49.094;11.900;2022-12-20T07:45:53;96827.00;;;0.81;100.00
11621;BME280;5866;49.094;11.900;2022-12-20T07:48:23;96828.81;;;0.95;100.00
11621;BME280;5866;49.094;11.900;2022-12-20T07:50:51;96826.03;;;1.55;100.00
11621;BME280;5866;49.094;11.900;2022-12-20T07:53:20;96825.94;;;1.71;100.00
11621;BME280;5866;49.094;11.900;2022-12-20T07:55:49;96810.59;;;1.93;100.00
11621;BME280;5866;49.094;11.900;2022-12-20T07:58:17;96812.66;;;1.60;100.00
11621;BME280;5866;49.094;11.900;2022-12-20T08:00:46;96807.44;;;1.32;100.00
11621;BME280;5866;49.094;11.900;2022-12-20T08:03:17;96814.53;;;1.30;100.00
11621;BME280;5866;49.094;11.900;2022-12-20T08:05:50;96814.13;;;1.08;100.00
11621;BME280;5866;49.094;11.900;2022-12-20T08:08:20;96812.97;;;0.98;100.00
11621;BME280;5866;49.094;11.900;2022-12-20T08:10:48;96812.13;;;0.97;100.00
11621;BME280;5866;49.094;11.900;2022-12-20T08:13:17;96805.78;;;1.59;100.00
11621;BME280;5866;49.094;11.900;2022-12-20T08:15:44;96801.06;;;1.78;100.00
11621;BME280;5866;49.094;11.900;2022-12-20T08:18:12;96794.50;;;1.99;100.00
11621;BME280;5866;49.094;11.900;2022-12-20T08:20:41;96798.47;;;1.92;100.00
11621;BME280;5866;49.094;11.900;2022-12-20T08:23:10;96794.91;;;1.93;100.00
11621;BME280;5866;49.094;11.900;2022-12-20T08:25:37;96796.38;;;1.97;100.00
11621;BME280;5866;49.094;11.900;2022-12-20T08:28:07;96781.34;;;2.01;100.00
11621;BME280;5866;49.094;11.900;2022-12-20T08:30:35;96784.78;;;2.15;100.00
11621;BME280;5866;49.094;11.900;2022-12-20T08:33:03;96783.94;;;2.41;100.00
11621;BME280;5866;49.094;11.900;2022-12-20T08:35:31;96787.84;;;2.49;100.00
11621;BME280;5866;49.094;11.900;2022-12-20T08:37:59;96792.31;;;2.73;100.00
11621;BME280;5866;49.094;11.900;2022-12-20T08:40:28;96788.66;;;2.76;100.00
11621;BME280;5866;49.094;11.900;2022-12-20T08:42:57;96780.00;;;2.49;100.00
11621;BME280;5866;49.094;11.900;2022-12-20T08:45:30;96775.19;;;2.28;100.00
11621;BME280;5866;49.094;11.900;2022-12-20T08:47:57;96763.41;;;2.09;100.00
11621;BME280;5866;49.094;11.900;2022-12-20T08:50:25;96762.09;;;2.28;100.00
11621;BME280;5866;49.094;11.900;2022-12-20T08:52:53;96762.84;;;2.30;100.00
11621;BME280;5866;49.094;11.900;2022-12-20T08:55:21;96754.28;;;2.41;100.00
11621;BME280;5866;49.094;11.900;2022-12-20T08:57:56;96766.75;;;2.77;100.00
11621;BME280;5866;49.094;11.900;2022-12-20T09:00:23;96762.47;;;2.36;100.00
11621;BME280;5866;49.094;11.900;2022-12-20T09:02:52;96761.75;;;1.94;100.00
11621;BME280;5866;49.094;11.900;2022-12-20T09:05:20;96759.97;;;1.80;100.00
11621;BME280;5866;49.094;11.900;2022-12-20T09:07:48;96752.06;;;1.53;100.00
11621;BME280;5866;49.094;11.900;2022-12-20T09:10:15;96758.72;;;1.59;100.00
11621;BME280;5866;49.094;11.900;2022-12-20T09:12:43;96759.53;;;1.59;100.00
11621;BME280;5866;49.094;11.900;2022-12-20T09:15:12;96750.13;;;1.57;100.00
11621;BME280;5866;49.094;11.900;2022-12-20T09:17:40;96752.94;;;1.54;100.00
11621;BME280;5866;49.094;11.900;2022-12-20T09:20:08;96765.81;;;1.29;100.00
11621;BME280;5866;49.094;11.900;2022-12-20T09:22:35;96754.44;;;1.30;100.00
11621;BME280;5866;49.094;11.900;2022-12-20T09:25:03;96754.50;;;1.28;100.00
11621;BME280;5866;49.094;11.900;2022-12-20T09:27:32;96755.06;;;1.76;100.00
11621;BME280;5866;49.094;11.900;2022-12-20T09:29:59;96757.75;;;1.88;100.00
11621;BME280;5866;49.094;11.900;2022-12-20T09:32:28;96760.38;;;1.88;100.00
11621;BME280;5866;49.094;11.900;2022-12-20T09:34:56;96760.75;;;1.82;100.00
11621;BME280;5866;49.094;11.900;2022-12-20T09:37:23;96751.78;;;1.86;100.00
11621;BME280;5866;49.094;11.900;2022-12-20T09:39:51;96754.13;;;2.03;100.00
11621;BME280;5866;49.094;11.900;2022-12-20T09:42:21;96747.84;;;2.47;100.00
11621;BME280;5866;49.094;11.900;2022-12-20T09:44:51;96745.19;;;2.86;100.00
11621;BME280;5866;49.094;11.900;2022-12-20T09:47:22;96735.34;;;2.89;100.00
11621;BME280;5866;49.094;11.900;2022-12-20T09:49:54;96744.66;;;2.81;100.00
11621;BME280;5866;49.094;11.900;2022-12-20T09:52:40;96742.00;;;3.07;100.00
11621;BME280;5866;49.094;11.900;2022-12-20T09:55:20;96743.22;;;3.02;100.00
11621;BME280;5866;49.094;11.900;2022-12-20T09:58:07;96747.00;;;2.98;100.00
11621;BME280;5866;49.094;11.900;2022-12-20T10:00:44;96744.72;;;2.54;100.00
11621;BME280;5866;49.094;11.900;2022-12-20T10:03:22;96746.91;;;2.21;100.00
11621;BME280;5866;49.094;11.900;2022-12-20T10:05:53;96728.06;;;2.28;100.00
11621;BME280;5866;49.094;11.900;2022-12-20T10:08:32;96730.44;;;2.46;100.00
11621;BME280;5866;49.094;11.900;2022-12-20T10:11:08;96723.88;;;2.53;100.00
11621;BME280;5866;49.094;11.900;2022-12-20T10:13:50;96723.59;;;2.70;100.00
11621;BME280;5866;49.094;11.900;2022-12-20T10:16:31;96716.22;;;2.62;100.00
11621;BME280;5866;49.094;11.900;2022-12-20T10:19:11;96719.19;;;2.83;100.00
11621;BME280;5866;49.094;11.900;2022-12-20T10:21:46;96711.94;;;2.49;100.00
11621;BME280;5866;49.094;11.900;2022-12-20T10:24:19;96716.88;;;2.26;100.00
11621;BME280;5866;49.094;11.900;2022-12-20T10:26:49;96710.41;;;2.32;100.00
11621;BME280;5866;49.094;11.900;2022-12-20T10:29:17;96704.63;;;2.79;100.00
11621;BME280;5866;49.094;11.900;2022-12-20T10:31:48;96708.00;;;3.18;100.00
11621;BME280;5866;49.094;11.900;2022-12-20T10:34:15;96709.09;;;3.65;100.00
11621;BME280;5866;49.094;11.900;2022-12-20T10:36:45;96700.75;;;3.83;100.00
11621;BME280;5866;49.094;11.900;2022-12-20T10:39:12;96690.94;;;3.74;100.00
11621;BME280;5866;49.094;11.900;2022-12-20T10:41:48;96690.81;;;3.76;100.00
11621;BME280;5866;49.094;11.900;2022-12-20T10:44:19;96695.47;;;3.72;100.00
11621;BME280;5866;49.094;11.900;2022-12-20T10:46:51;96687.97;;;3.91;100.00
11621;BME280;5866;49.094;11.900;2022-12-20T10:49:30;96678.78;;;3.97;100.00
11621;BME280;5866;49.094;11.900;2022-12-20T10:52:01;96669.88;;;3.99;99.75
11621;BME280;5866;49.094;11.900;2022-12-20T10:54:32;96671.72;;;3.74;100.00
11621;BME280;5866;49.094;11.900;2022-12-20T10:57:02;96657.75;;;4.10;100.00
11621;BME280;5866;49.094;11.900;2022-12-20T10:59:43;96651.50;;;4.34;96.75
11621;BME280;5866;49.094;11.900;2022-12-20T11:02:25;96642.06;;;4.32;96.64
11621;BME280;5866;49.094;11.900;2022-12-20T11:05:20;96634.91;;;4.23;96.95
11621;BME280;5866;49.094;11.900;2022-12-20T11:07:54;96629.75;;;4.56;95.47
11621;BME280;5866;49.094;11.900;2022-12-20T11:10:43;96625.53;;;5.10;91.86
11621;BME280;5866;49.094;11.900;2022-12-20T11:13:19;96628.50;;;5.06;89.74
11621;BME280;5866;49.094;11.900;2022-12-20T11:15:49;96615.34;;;4.95;88.83
11621;BME280;5866;49.094;11.900;2022-12-20T11:18:20;96614.25;;;4.86;89.63
11621;BME280;5866;49.094;11.900;2022-12-20T11:20:55;96603.19;;;4.94;89.09
11621;BME280;5866;49.094;11.900;2022-12-20T11:23:35;96605.56;;;4.86;91.04
11621;BME280;5866;49.094;11.900;2022-12-20T11:26:19;96614.31;;;4.51;92.62
11621;BME280;5866;49.094;11.900;2022-12-20T11:29:01;96605.41;;;4.76;91.42
11621;BME280;5866;49.094;11.900;2022-12-20T11:31:42;96603.44;;;4.45;92.47
11621;BME280;5866;49.094;11.900;2022-12-20T11:34:24;96593.63;;;4.36;93.46
11621;BME280;5866;49.094;11.900;2022-12-20T11:37:08;96587.06;;;3.95;96.54
11621;BME280;5866;49.094;11.900;2022-12-20T11:39:49;96591.91;;;4.13;96.08
11621;BME280;5866;49.094;11.900;2022-12-20T11:42:27;96576.63;;;3.83;99.32
11621;BME280;5866;49.094;11.900;2022-12-20T11:45:04;96568.56;;;3.73;100.00
11621;BME280;5866;49.094;11.900;2022-12-20T11:47:51;96577.34;;;3.61;100.00
11621;BME280;5866;49.094;11.900;2022-12-20T11:50:35;96576.38;;;3.39;100.00
11621;BME280;5866;49.094;11.900;2022-12-20T11:53:09;96563.88;;;3.42;100.00
11621;BME280;5866;49.094;11.900;2022-12-20T11:55:43;96551.66;;;3.77;100.00
11621;BME280;5866;49.094;11.900;2022-12-20T11:58:16;96552.28;;;3.57;100.00
11621;BME280;5866;49.094;11.900;2022-12-20T12:00:51;96553.91;;;3.47;100.00
11621;BME280;5866;49.094;11.900;2022-12-20T12:03:26;96558.28;;;3.23;100.00
11621;BME280;5866;49.094;11.900;2022-12-20T12:05:57;96561.75;;;3.23;100.00
11621;BME280;5866;49.094;11.900;2022-12-20T12:08:33;96558.59;;;3.18;100.00
11621;BME280;5866;49.094;11.900;2022-12-20T12:11:11;96549.56;;;3.35;100.00
11621;BME280;5866;49.094;11.900;2022-12-20T12:14:01;96551.88;;;3.27;100.00
11621;BME280;5866;49.094;11.900;2022-12-20T12:16:33;96545.34;;;3.09;100.00
11621;BME280;5866;49.094;11.900;2022-12-20T12:19:02;96553.75;;;3.25;100.00
11621;BME280;5866;49.094;11.900;2022-12-20T12:21:32;96540.34;;;3.30;100.00
11621;BME280;5866;49.094;11.900;2022-12-20T12:24:06;96548.03;;;3.44;100.00
11621;BME280;5866;49.094;11.900;2022-12-20T12:26:39;96540.28;;;3.42;100.00
11621;BME280;5866;49.094;11.900;2022-12-20T12:29:11;96544.03;;;3.14;100.00
11621;BME280;5866;49.094;11.900;2022-12-20T12:31:43;96534.13;;;3.07;100.00
11621;BME280;5866;49.094;11.900;2022-12-20T12:34:24;96535.06;;;3.06;100.00
11621;BME280;5866;49.094;11.900;2022-12-20T12:37:19;96528.91;;;2.94;100.00
11621;BME280;5866;49.094;11.900;2022-12-20T12:40:15;96531.41;;;2.96;100.00
11621;BME280;5866;49.094;11.900;2022-12-20T12:45:56;96538.00;;;3.38;100.00
11621;BME280;5866;49.094;11.900;2022-12-20T12:48:29;96539.28;;;3.32;100.00
11621;BME280;5866;49.094;11.900;2022-12-20T12:51:02;96535.84;;;3.55;100.00
11621;BME280;5866;49.094;11.900;2022-12-20T12:53:34;96522.31;;;3.72;100.00
11621;BME280;5866;49.094;11.900;2022-12-20T12:56:28;96527.69;;;3.47;100.00
11621;BME280;5866;49.094;11.900;2022-12-20T12:59:38;96519.28;;;3.18;100.00
11621;BME280;5866;49.094;11.900;2022-12-20T13:02:50;96513.13;;;3.19;100.00
11621;BME280;5866;49.094;11.900;2022-12-20T13:05:34;96513.94;;;3.44;100.00
11621;BME280;5866;49.094;11.900;2022-12-20T13:08:02;96517.16;;;3.94;100.00
11621;BME280;5866;49.094;11.900;2022-12-20T13:13:34;96529.63;;;4.15;100.00
11621;BME280;5866;49.094;11.900;2022-12-20T13:16:10;96531.34;;;4.49;99.31
11621;BME280;5866;49.094;11.900;2022-12-20T13:19:09;96531.44;;;4.36;98.08
11621;BME280;5866;49.094;11.900;2022-12-20T13:21:42;96531.22;;;4.39;98.31
11621;BME280;5866;49.094;11.900;2022-12-20T13:24:36;96533.78;;;4.17;98.98
11621;BME280;5866;49.094;11.900;2022-12-20T13:27:16;96536.38;;;3.71;100.00
11621;BME280;5866;49.094;11.900;2022-12-20T13:29:59;96537.38;;;3.81;100.00